Time;durP1;ratioP1;P1;durP2;ratioP2;P2;SDS_P1;SDS_P2;PMS_P1;PMS_P2;Temp;Humidity;BMP_temperature;BMP_pressure;BME280_temperature;BME280_humidity;BME280_pressure;Samples;Min_cycle;Max_cycle;Signal;HPM_P1;HPM_P2
2021/01/27 00:00:49;;;;;;;10.38;2.95;;;;;;;;;;5004104;28;20050;-62
2021/01/27 00:03:16;;;;;;;12.32;3.13;;;;;;;;;;5000546;28;20052;-62
2021/01/27 00:05:43;;;;;;;10.60;3.20;;;;;;;;;;5004411;28;20119;-62
2021/01/27 00:08:09;;;;;;;12.75;3.28;;;;;;;;;;5016084;28;20048;-61
2021/01/27 00:10:36;;;;;;;9.20;3.08;;;;;;;;;;5023525;28;20030;-61
2021/01/27 00:13:02;;;;;;;8.82;3.60;;;;;;;;;;5007890;28;20030;-62
2021/01/27 00:15:29;;;;;;;10.10;3.17;;;;;;;;;;5004160;28;20121;-61
2021/01/27 00:17:56;;;;;;;4.90;2.33;;;;;;;;;;5001880;28;20117;-61
2021/01/27 00:20:24;;;;;;;10.05;2.70;;;;;;;;;;5003915;28;20057;-61
2021/01/27 00:22:50;;;;;;;8.48;2.80;;;;;;;;;;5000367;28;20037;-61
2021/01/27 00:25:17;;;;;;;8.00;3.03;;;;;;;;;;5004877;28;20127;-60
2021/01/27 00:27:44;;;;;;;9.57;2.92;;;;;;;;;;5000570;28;20038;-61
2021/01/27 00:30:11;;;;;;;11.68;3.03;;;;;;;;;;5006362;28;20038;-61
2021/01/27 00:32:37;;;;;;;8.95;2.83;;;;;;;;;;5005638;28;20050;-61
2021/01/27 00:35:04;;;;;;;8.93;3.55;;;;;;;;;;5007055;28;20045;-62
2021/01/27 00:37:31;;;;;;;9.98;3.90;;;;;;;;;;5008091;28;20038;-61
2021/01/27 00:39:57;;;;;;;8.65;3.42;;;;;;;;;;5027863;28;20044;-61
2021/01/27 00:42:23;;;;;;;9.93;3.45;;;;;;;;;;5024681;28;20030;-61
2021/01/27 00:44:49;;;;;;;7.47;3.00;;;;;;;;;;5023652;28;20049;-61
2021/01/27 00:47:15;;;;;;;7.20;2.85;;;;;;;;;;5026630;28;20060;-61
2021/01/27 00:49:41;;;;;;;7.45;2.83;;;;;;;;;;5008348;28;20085;-61
2021/01/27 00:52:07;;;;;;;9.38;3.10;;;;;;;;;;5023763;28;20099;-62
2021/01/27 00:54:34;;;;;;;10.00;2.92;;;;;;;;;;5022783;28;20095;-61
2021/01/27 00:57:00;;;;;;;10.63;3.20;;;;;;;;;;5026907;28;20134;-61
2021/01/27 00:59:27;;;;;;;8.20;2.58;;;;;;;;;;5021292;28;20135;-61
2021/01/27 01:01:53;;;;;;;7.35;2.72;;;;;;;;;;5019595;28;20041;-61
2021/01/27 01:04:19;;;;;;;8.02;2.95;;;;;;;;;;5008673;28;20044;-61
2021/01/27 01:06:45;;;;;;;6.85;2.13;;;;;;;;;;5040615;28;20046;-61
2021/01/27 01:09:11;;;;;;;8.63;2.60;;;;;;;;;;5014279;28;20086;-61
2021/01/27 01:11:38;;;;;;;10.05;2.85;;;;;;;;;;5020604;28;20026;-61
2021/01/27 01:14:04;;;;;;;6.35;2.55;;;;;;;;;;5020699;28;20074;-61
2021/01/27 01:16:30;;;;;;;5.97;2.55;;;;;;;;;;5022485;28;20070;-61
2021/01/27 01:18:56;;;;;;;5.13;2.10;;;;;;;;;;5024709;28;20107;-61
2021/01/27 01:21:22;;;;;;;7.35;2.38;;;;;;;;;;4987379;28;20050;-61
2021/01/27 01:23:48;;;;;;;6.00;2.10;;;;;;;;;;5043063;28;20056;-61
2021/01/27 01:26:14;;;;;;;7.68;2.80;;;;;;;;;;5000823;28;20046;-61
2021/01/27 01:28:41;;;;;;;6.82;2.67;;;;;;;;;;5002040;28;20164;-62
2021/01/27 01:31:07;;;;;;;5.43;2.00;;;;;;;;;;4999035;28;20038;-61
2021/01/27 01:33:33;;;;;;;4.55;2.20;;;;;;;;;;4986656;28;20038;-61
2021/01/27 01:36:01;;;;;;;6.30;2.78;;;;;;;;;;4986547;28;20050;-61
2021/01/27 01:38:28;;;;;;;4.80;1.88;;;;;;;;;;4987013;28;20124;-61
2021/01/27 01:40:55;;;;;;;7.00;2.60;;;;;;;;;;4998319;28;20041;-61
2021/01/27 01:43:23;;;;;;;5.25;1.88;;;;;;;;;;4985246;28;20169;-61
2021/01/27 01:45:50;;;;;;;6.75;2.63;;;;;;;;;;5003896;28;20093;-61
2021/01/27 01:48:29;;;;;;;6.22;2.03;;;;;;;;;;5006356;28;20061;-61
2021/01/27 01:50:57;;;;;;;6.60;2.03;;;;;;;;;;5015977;28;20046;-61
2021/01/27 01:53:23;;;;;;;;;;;;;;;;;;4987640;28;20042;-61
2021/01/27 01:55:51;;;;;;;5.07;2.00;;;;;;;;;;4985554;28;19928;-61
2021/01/27 01:58:17;;;;;;;4.13;1.88;;;;;;;;;;5044372;28;20045;-61
2021/01/27 02:00:43;;;;;;;5.22;2.15;;;;;;;;;;5025113;28;20037;-61
2021/01/27 02:03:11;;;;;;;4.45;2.05;;;;;;;;;;5005151;28;20038;-61
2021/01/27 02:05:38;;;;;;;5.93;2.23;;;;;;;;;;5006947;28;20041;-61
2021/01/27 02:08:05;;;;;;;5.15;2.03;;;;;;;;;;5036820;28;20056;-61
2021/01/27 02:10:32;;;;;;;4.95;2.25;;;;;;;;;;5025518;28;20041;-61
2021/01/27 02:13:13;;;;;;;5.63;2.35;;;;;;;;;;5046132;28;20132;-61
2021/01/27 02:15:46;;;;;;;10.88;2.80;;;;;;;;;;5025927;28;20044;-61
2021/01/27 02:18:19;;;;;;;6.53;1.88;;;;;;;;;;5029716;28;20089;-61
2021/01/27 02:21:03;;;;;;;8.15;2.22;;;;;;;;;;5025040;28;20041;-62
2021/01/27 02:23:45;;;;;;;8.32;2.22;;;;;;;;;;5039268;28;20041;-61
2021/01/27 02:26:21;;;;;;;6.40;2.15;;;;;;;;;;5042495;28;20033;-61
2021/01/27 02:29:07;;;;;;;4.40;2.17;;;;;;;;;;5016303;28;20045;-62
2021/01/27 02:31:37;;;;;;;8.77;2.00;;;;;;;;;;5037423;28;20053;-61
2021/01/27 02:34:22;;;;;;;4.38;1.77;;;;;;;;;;5004914;28;20045;-61
2021/01/27 02:36:50;;;;;;;9.10;2.05;;;;;;;;;;5005345;28;20041;-61
2021/01/27 02:39:18;;;;;;;4.72;1.85;;;;;;;;;;5002395;28;20053;-61
2021/01/27 02:41:50;;;;;;;6.47;1.85;;;;;;;;;;5005548;28;20030;-61
2021/01/27 02:44:18;;;;;;;5.22;1.92;;;;;;;;;;5021657;28;20045;-61
2021/01/27 02:46:48;;;;;;;7.28;2.17;;;;;;;;;;5023556;28;20041;-61
2021/01/27 02:49:16;;;;;;;3.40;1.50;;;;;;;;;;5011758;28;20052;-61
2021/01/27 02:51:46;;;;;;;4.28;1.55;;;;;;;;;;5021534;28;20040;-61
2021/01/27 02:54:15;;;;;;;6.03;2.35;;;;;;;;;;5019518;28;20060;-61
2021/01/27 02:56:43;;;;;;;5.72;2.00;;;;;;;;;;5005574;28;20034;-63
2021/01/27 02:59:12;;;;;;;4.32;2.00;;;;;;;;;;5012858;28;20033;-61
2021/01/27 03:01:40;;;;;;;4.93;1.42;;;;;;;;;;5024440;28;20045;-61
2021/01/27 03:04:08;;;;;;;4.93;1.50;;;;;;;;;;5026710;28;20044;-61
2021/01/27 03:06:35;;;;;;;3.00;1.50;;;;;;;;;;5044228;28;20119;-61
2021/01/27 03:09:03;;;;;;;3.30;1.30;;;;;;;;;;5029321;28;20052;-61
2021/01/27 03:11:31;;;;;;;3.80;1.30;;;;;;;;;;5005550;28;20030;-61
2021/01/27 03:13:57;;;;;;;4.97;1.73;;;;;;;;;;5018026;28;20029;-61
2021/01/27 03:16:24;;;;;;;3.20;0.90;;;;;;;;;;5020117;28;20053;-62
2021/01/27 03:18:54;;;;;;;5.53;1.33;;;;;;;;;;5023066;28;20056;-61
2021/01/27 03:21:24;;;;;;;4.75;1.35;;;;;;;;;;5024095;28;20050;-61
2021/01/27 03:23:52;;;;;;;5.93;1.80;;;;;;;;;;5045063;28;20052;-61
2021/01/27 03:26:20;;;;;;;2.72;1.20;;;;;;;;;;5023178;28;20037;-61
2021/01/27 03:28:50;;;;;;;5.93;1.77;;;;;;;;;;5025849;28;20170;-61
2021/01/27 03:31:16;;;;;;;3.75;1.60;;;;;;;;;;5020221;28;20091;-61
2021/01/27 03:33:45;;;;;;;6.50;1.33;;;;;;;;;;5009403;28;20034;-62
2021/01/27 03:36:12;;;;;;;1.90;0.90;;;;;;;;;;5002123;28;20139;-61
2021/01/27 03:38:39;;;;;;;3.13;1.38;;;;;;;;;;5004887;28;20044;-61
2021/01/27 03:41:08;;;;;;;3.50;1.20;;;;;;;;;;5014280;28;20037;-61
2021/01/27 03:43:36;;;;;;;5.15;1.35;;;;;;;;;;5024118;28;20048;-61
2021/01/27 03:46:08;;;;;;;3.65;1.40;;;;;;;;;;5011684;28;20052;-61
2021/01/27 03:48:37;;;;;;;4.60;1.60;;;;;;;;;;5005623;28;20041;-61
2021/01/27 03:51:03;;;;;;;4.32;1.67;;;;;;;;;;5016424;28;20045;-61
2021/01/27 03:53:30;;;;;;;3.67;1.33;;;;;;;;;;5043930;28;20052;-61
2021/01/27 03:55:58;;;;;;;2.10;1.02;;;;;;;;;;5031812;28;20059;-61
2021/01/27 03:58:30;;;;;;;4.28;1.75;;;;;;;;;;5022591;28;20037;-61
2021/01/27 04:00:59;;;;;;;3.30;1.48;;;;;;;;;;5015434;28;20037;-62
2021/01/27 04:03:26;;;;;;;5.18;1.30;;;;;;;;;;4999634;28;20038;-61
2021/01/27 04:05:52;;;;;;;6.53;1.70;;;;;;;;;;5003114;28;20034;-61
2021/01/27 04:08:18;;;;;;;3.35;1.27;;;;;;;;;;5006043;28;20062;-61
2021/01/27 04:10:44;;;;;;;2.70;1.27;;;;;;;;;;5007651;28;20131;-61
2021/01/27 04:13:10;;;;;;;3.80;1.40;;;;;;;;;;5003757;28;20067;-61
2021/01/27 04:15:36;;;;;;;3.35;1.33;;;;;;;;;;5006014;28;20056;-61
2021/01/27 04:18:03;;;;;;;3.80;1.40;;;;;;;;;;5019439;28;20049;-61
2021/01/27 04:20:30;;;;;;;2.80;1.40;;;;;;;;;;5026783;28;20048;-61
2021/01/27 04:22:56;;;;;;;4.85;1.52;;;;;;;;;;5023275;28;20064;-61
2021/01/27 04:25:22;;;;;;;4.05;1.45;;;;;;;;;;5028305;28;20052;-61
2021/01/27 04:27:49;;;;;;;4.40;1.70;;;;;;;;;;5011162;28;20100;-61
2021/01/27 04:30:17;;;;;;;4.18;1.52;;;;;;;;;;5007243;28;20045;-61
2021/01/27 04:32:43;;;;;;;5.70;1.50;;;;;;;;;;5004522;28;20046;-61
2021/01/27 04:35:10;;;;;;;3.63;1.23;;;;;;;;;;5007447;28;20042;-61
2021/01/27 04:37:37;;;;;;;4.25;1.27;;;;;;;;;;5004998;28;20044;-61
2021/01/27 04:40:04;;;;;;;3.47;1.40;;;;;;;;;;5006664;28;20045;-61
2021/01/27 04:42:31;;;;;;;2.90;1.30;;;;;;;;;;5004855;28;20025;-61
2021/01/27 04:44:57;;;;;;;2.42;1.25;;;;;;;;;;5012058;28;20057;-61
2021/01/27 04:47:27;;;;;;;2.92;1.20;;;;;;;;;;5004096;28;20045;-61
2021/01/27 04:49:56;;;;;;;6.00;1.15;;;;;;;;;;5026832;28;20109;-61
2021/01/27 04:52:29;;;;;;;3.17;1.45;;;;;;;;;;5026271;28;20049;-61
2021/01/27 04:55:02;;;;;;;3.15;1.30;;;;;;;;;;5008232;28;20045;-61
2021/01/27 04:57:49;;;;;;;3.97;1.17;;;;;;;;;;5007727;28;20052;-62
2021/01/27 05:00:20;;;;;;;3.97;1.63;;;;;;;;;;5006520;28;20135;-61
2021/01/27 05:03:07;;;;;;;2.63;1.30;;;;;;;;;;5006177;28;20038;-61
2021/01/27 05:05:33;;;;;;;4.03;1.40;;;;;;;;;;4980133;28;20073;-62
2021/01/27 05:08:05;;;;;;;5.00;1.70;;;;;;;;;;4986184;28;20030;-61
2021/01/27 05:10:35;;;;;;;1.90;1.30;;;;;;;;;;5005899;28;20037;-61
2021/01/27 05:13:03;;;;;;;6.75;1.63;;;;;;;;;;5007671;28;20108;-62
2021/01/27 05:15:29;;;;;;;2.38;1.27;;;;;;;;;;4999214;28;20048;-61
2021/01/27 05:17:55;;;;;;;3.17;1.25;;;;;;;;;;5001861;28;20049;-61
2021/01/27 05:20:21;;;;;;;4.65;1.80;;;;;;;;;;5016791;28;20093;-61
2021/01/27 05:22:48;;;;;;;3.78;1.63;;;;;;;;;;5035985;28;20056;-62
2021/01/27 05:25:17;;;;;;;2.75;1.48;;;;;;;;;;5026394;28;20038;-61
2021/01/27 05:27:46;;;;;;;2.33;1.23;;;;;;;;;;5006206;28;20126;-61
2021/01/27 05:30:17;;;;;;;2.25;1.27;;;;;;;;;;4999264;28;20030;-61
2021/01/27 05:32:50;;;;;;;4.28;1.35;;;;;;;;;;5005565;28;20046;-61
2021/01/27 05:35:25;;;;;;;2.75;1.40;;;;;;;;;;5018254;28;20127;-61
2021/01/27 05:37:51;;;;;;;3.92;1.90;;;;;;;;;;5007039;28;20042;-61
2021/01/27 05:40:21;;;;;;;3.63;1.70;;;;;;;;;;5028203;28;20045;-61
2021/01/27 05:42:48;;;;;;;3.33;1.50;;;;;;;;;;5033958;28;20045;-61
2021/01/27 05:45:32;;;;;;;7.38;2.45;;;;;;;;;;5002833;28;20033;-61
2021/01/27 05:48:11;;;;;;;6.07;2.42;;;;;;;;;;5007259;28;20030;-62
2021/01/27 05:50:38;;;;;;;7.55;2.50;;;;;;;;;;5018343;28;20030;-61
2021/01/27 05:53:12;;;;;;;8.63;2.60;;;;;;;;;;5006413;28;20042;-61
2021/01/27 05:55:38;;;;;;;5.50;2.20;;;;;;;;;;5000775;28;20057;-61
2021/01/27 05:58:07;;;;;;;5.15;2.30;;;;;;;;;;5005973;28;20030;-61
2021/01/27 06:00:33;;;;;;;5.35;1.95;;;;;;;;;;5002006;28;20042;-61
2021/01/27 06:03:00;;;;;;;3.97;2.08;;;;;;;;;;5007524;28;20103;-61
2021/01/27 06:05:33;;;;;;;8.10;2.38;;;;;;;;;;5020810;28;20045;-61
2021/01/27 06:08:07;;;;;;;3.88;1.92;;;;;;;;;;5024652;28;20131;-61
2021/01/27 06:10:35;;;;;;;3.25;1.63;;;;;;;;;;5021976;28;20041;-61
2021/01/27 06:13:18;;;;;;;4.05;2.05;;;;;;;;;;5001461;28;20052;-61
2021/01/27 06:15:44;;;;;;;4.70;1.90;;;;;;;;;;5003054;28;20193;-61
2021/01/27 06:18:21;;;;;;;5.22;2.45;;;;;;;;;;4998738;28;20038;-61
2021/01/27 06:20:48;;;;;;;4.70;1.67;;;;;;;;;;5008134;28;20022;-61
2021/01/27 06:23:32;;;;;;;6.72;1.88;;;;;;;;;;4999927;28;20054;-61
2021/01/27 06:26:09;;;;;;;4.60;1.50;;;;;;;;;;4994500;28;20042;-61
2021/01/27 06:29:05;;;;;;;5.45;1.80;;;;;;;;;;5004215;28;20038;-61
2021/01/27 06:31:38;;;;;;;3.85;1.50;;;;;;;;;;4961553;28;20047;-61
2021/01/27 06:34:25;;;;;;;3.30;1.55;;;;;;;;;;5044038;28;20044;-61
2021/01/27 06:36:58;;;;;;;3.45;1.67;;;;;;;;;;5028368;28;20041;-61
2021/01/27 06:39:43;;;;;;;3.30;1.58;;;;;;;;;;5018793;28;20037;-61
2021/01/27 06:42:17;;;;;;;2.10;1.25;;;;;;;;;;5019243;28;20045;-60
2021/01/27 06:44:53;;;;;;;3.05;1.35;;;;;;;;;;5003579;28;20048;-61
2021/01/27 06:47:30;;;;;;;4.57;1.42;;;;;;;;;;5002668;28;20049;-61
2021/01/27 06:50:06;;;;;;;3.60;1.55;;;;;;;;;;5018332;28;20038;-60
2021/01/27 06:52:53;;;;;;;6.07;1.98;;;;;;;;;;5023385;28;20044;-60
2021/01/27 06:55:22;;;;;;;4.05;1.70;;;;;;;;;;5042387;28;20044;-61
2021/01/27 06:57:56;;;;;;;3.15;1.35;;;;;;;;;;5029720;28;20034;-61
2021/01/27 07:00:40;;;;;;;3.35;1.38;;;;;;;;;;5002218;28;20058;-61
2021/01/27 07:03:16;;;;;;;3.95;1.80;;;;;;;;;;4999506;28;20038;-61
2021/01/27 07:05:48;;;;;;;4.50;1.42;;;;;;;;;;5020110;28;20053;-61
2021/01/27 07:08:22;;;;;;;3.58;1.50;;;;;;;;;;5012610;28;20041;-61
2021/01/27 07:10:57;;;;;;;4.07;1.35;;;;;;;;;;5021330;28;20045;-61
2021/01/27 07:13:38;;;;;;;2.08;1.30;;;;;;;;;;5019396;28;20041;-61
2021/01/27 07:16:06;;;;;;;4.43;1.80;;;;;;;;;;5006261;28;20044;-61
2021/01/27 07:18:52;;;;;;;2.20;1.30;;;;;;;;;;5018382;28;20037;-61
2021/01/27 07:21:26;;;;;;;4.25;1.52;;;;;;;;;;5018009;28;20041;-61
2021/01/27 07:23:55;;;;;;;2.63;1.40;;;;;;;;;;5033265;28;20118;-61
2021/01/27 07:26:24;;;;;;;4.57;1.55;;;;;;;;;;5023446;28;20045;-61
2021/01/27 07:28:55;;;;;;;3.20;1.40;;;;;;;;;;5037360;28;20037;-61
2021/01/27 07:31:24;;;;;;;3.00;1.30;;;;;;;;;;5019913;28;20054;-61
2021/01/27 07:33:53;;;;;;;3.25;1.65;;;;;;;;;;5019483;28;20034;-61
2021/01/27 07:36:19;;;;;;;;;;;;;;;;;;5043764;28;20033;-61
2021/01/27 07:38:48;;;;;;;6.20;2.17;;;;;;;;;;5044682;28;20002;-61
2021/01/27 07:41:15;;;;;;;2.92;1.35;;;;;;;;;;5017630;28;20045;-61
2021/01/27 07:43:46;;;;;;;3.55;1.67;;;;;;;;;;5025584;28;20037;-61
2021/01/27 07:46:13;;;;;;;3.72;1.50;;;;;;;;;;5024803;28;20037;-61
2021/01/27 07:48:41;;;;;;;2.85;1.50;;;;;;;;;;5028328;28;20056;-61
2021/01/27 07:51:10;;;;;;;3.28;1.60;;;;;;;;;;5021692;28;20053;-61
2021/01/27 07:53:37;;;;;;;4.82;1.42;;;;;;;;;;5009214;28;20046;-59
2021/01/27 07:56:08;;;;;;;2.90;1.38;;;;;;;;;;5043550;28;20040;-61
2021/01/27 07:58:40;;;;;;;3.92;1.15;;;;;;;;;;5035427;28;20379;-60
2021/01/27 08:01:09;;;;;;;4.28;1.20;;;;;;;;;;5024671;28;20071;-60
2021/01/27 08:03:41;;;;;;;2.78;1.27;;;;;;;;;;5025163;28;20048;-60
2021/01/27 08:06:11;;;;;;;4.28;1.45;;;;;;;;;;5012529;28;20033;-59
2021/01/27 08:08:48;;;;;;;2.35;1.30;;;;;;;;;;5024187;28;20061;-60
2021/01/27 08:11:17;;;;;;;2.47;1.33;;;;;;;;;;5012704;28;20078;-61
2021/01/27 08:13:43;;;;;;;2.25;1.40;;;;;;;;;;5025698;28;20073;-59
2021/01/27 08:16:29;;;;;;;2.38;1.33;;;;;;;;;;5016973;28;20041;-60
2021/01/27 08:19:17;;;;;;;2.33;1.20;;;;;;;;;;5007192;28;20082;-59
2021/01/27 08:22:01;;;;;;;2.60;1.03;;;;;;;;;;5006618;28;20033;-59
2021/01/27 08:24:46;;;;;;;2.40;1.45;;;;;;;;;;5041952;28;20041;-60
2021/01/27 08:27:32;;;;;;;3.47;1.38;;;;;;;;;;5011200;28;20038;-59
2021/01/27 08:30:28;;;;;;;5.53;2.55;;;;;;;;;;5006205;28;20038;-59
2021/01/27 08:33:28;;;;;;;3.33;1.52;;;;;;;;;;5003333;28;20029;-59
2021/01/27 08:36:04;;;;;;;3.13;1.50;;;;;;;;;;5007313;28;20042;-60
2021/01/27 08:38:32;;;;;;;2.55;1.30;;;;;;;;;;5024599;28;20083;-60
2021/01/27 08:40:59;;;;;;;2.38;1.40;;;;;;;;;;5027753;28;20041;-60
2021/01/27 08:43:26;;;;;;;3.05;1.65;;;;;;;;;;5022159;28;20056;-60
2021/01/27 08:45:53;;;;;;;3.80;1.80;;;;;;;;;;5026279;28;20033;-60
2021/01/27 08:48:34;;;;;;;5.20;1.83;;;;;;;;;;5006913;28;20030;-60
2021/01/27 08:51:02;;;;;;;3.20;1.45;;;;;;;;;;5003977;28;20095;-60
2021/01/27 08:53:51;;;;;;;2.53;1.40;;;;;;;;;;4992058;28;20055;-60
2021/01/27 08:56:17;;;;;;;3.30;1.80;;;;;;;;;;5023769;28;20041;-60
2021/01/27 08:59:05;;;;;;;3.03;1.60;;;;;;;;;;5001680;28;20061;-60
2021/01/27 09:01:47;;;;;;;2.78;1.40;;;;;;;;;;5007022;28;20076;-60
2021/01/27 09:04:32;;;;;;;3.10;1.58;;;;;;;;;;5019694;28;20033;-60
2021/01/27 09:07:03;;;;;;;3.63;2.00;;;;;;;;;;5026519;28;20045;-60
2021/01/27 09:09:37;;;;;;;2.90;1.70;;;;;;;;;;4997575;28;20165;-60
2021/01/27 09:12:05;;;;;;;4.43;2.17;;;;;;;;;;5007736;28;20022;-61
2021/01/27 09:14:31;;;;;;;3.65;1.83;;;;;;;;;;5017926;28;20047;-60
2021/01/27 09:16:59;;;;;;;4.25;2.15;;;;;;;;;;5025798;28;20037;-60
2021/01/27 09:19:28;;;;;;;4.15;1.98;;;;;;;;;;5022462;28;20089;-60
2021/01/27 09:22:15;;;;;;;4.88;2.33;;;;;;;;;;5020079;28;20046;-60
2021/01/27 09:24:43;;;;;;;4.35;2.67;;;;;;;;;;5012490;28;20044;-60
2021/01/27 09:27:14;;;;;;;5.15;2.38;;;;;;;;;;5025285;28;20042;-60
2021/01/27 09:29:41;;;;;;;5.32;2.60;;;;;;;;;;5017834;28;20165;-60
2021/01/27 09:32:13;;;;;;;10.27;3.15;;;;;;;;;;5005436;28;20095;-60
2021/01/27 09:34:39;;;;;;;4.72;2.45;;;;;;;;;;5014467;28;20022;-60
2021/01/27 09:37:08;;;;;;;7.38;3.53;;;;;;;;;;5026886;28;20094;-60
2021/01/27 09:39:36;;;;;;;8.73;4.18;;;;;;;;;;5019874;28;20045;-60
2021/01/27 09:42:14;;;;;;;6.00;2.75;;;;;;;;;;5026124;28;20130;-60
2021/01/27 09:44:41;;;;;;;7.28;3.30;;;;;;;;;;5013908;28;20045;-60
2021/01/27 09:47:08;;;;;;;6.30;2.63;;;;;;;;;;5008138;28;20038;-60
2021/01/27 09:49:39;;;;;;;4.68;2.30;;;;;;;;;;5007740;28;20037;-60
2021/01/27 09:52:07;;;;;;;7.10;3.38;;;;;;;;;;5025326;28;20041;-59
2021/01/27 09:54:33;;;;;;;7.50;3.55;;;;;;;;;;5037194;28;20049;-60
2021/01/27 09:57:00;;;;;;;5.70;3.15;;;;;;;;;;5006849;28;20127;-60
2021/01/27 09:59:27;;;;;;;5.00;2.42;;;;;;;;;;5004522;28;20052;-60
2021/01/27 10:01:53;;;;;;;6.35;3.05;;;;;;;;;;5005436;28;20052;-60
2021/01/27 10:04:30;;;;;;;6.75;3.22;;;;;;;;;;5003588;28;20057;-60
2021/01/27 10:07:04;;;;;;;10.32;4.10;;;;;;;;;;5000691;28;20038;-60
2021/01/27 10:09:31;;;;;;;8.15;3.65;;;;;;;;;;5004288;28;20034;-60
2021/01/27 10:11:59;;;;;;;9.93;3.38;;;;;;;;;;4999795;28;20046;-60
2021/01/27 10:14:28;;;;;;;6.30;3.30;;;;;;;;;;4986039;28;20058;-60
2021/01/27 10:16:55;;;;;;;7.70;3.92;;;;;;;;;;4998878;28;20061;-60
2021/01/27 10:19:24;;;;;;;7.43;4.03;;;;;;;;;;5004718;28;20073;-60
2021/01/27 10:21:51;;;;;;;10.50;4.38;;;;;;;;;;4988976;28;20066;-60
2021/01/27 10:24:35;;;;;;;9.32;4.30;;;;;;;;;;5037802;28;20047;-60
2021/01/27 10:27:03;;;;;;;7.00;3.55;;;;;;;;;;4994955;28;20038;-60
2021/01/27 10:29:33;;;;;;;8.60;3.92;;;;;;;;;;5001931;28;20053;-60
2021/01/27 10:32:17;;;;;;;8.80;4.47;;;;;;;;;;5007734;28;20094;-60
2021/01/27 10:34:43;;;;;;;8.65;4.47;;;;;;;;;;5019668;28;20033;-60
2021/01/27 10:37:26;;;;;;;7.07;3.53;;;;;;;;;;5030231;28;20138;-60
2021/01/27 10:40:10;;;;;;;14.63;5.65;;;;;;;;;;5041444;28;20131;-61
2021/01/27 10:42:37;;;;;;;12.18;4.97;;;;;;;;;;4996675;28;20045;-60
2021/01/27 10:45:23;;;;;;;10.25;4.88;;;;;;;;;;4987168;28;20101;-60
2021/01/27 10:48:02;;;;;;;8.93;4.25;;;;;;;;;;5025237;28;20048;-60
2021/01/27 10:50:28;;;;;;;9.02;4.35;;;;;;;;;;5041871;28;20026;-60
2021/01/27 10:52:55;;;;;;;9.93;4.90;;;;;;;;;;4994571;28;20049;-60
2021/01/27 10:55:21;;;;;;;9.70;4.90;;;;;;;;;;5002873;28;20045;-60
2021/01/27 10:57:49;;;;;;;10.32;4.63;;;;;;;;;;5000351;28;20034;-60
2021/01/27 11:00:17;;;;;;;11.00;5.03;;;;;;;;;;4985839;28;20066;-60
2021/01/27 11:02:44;;;;;;;11.45;5.45;;;;;;;;;;4982873;28;20038;-60
2021/01/27 11:05:12;;;;;;;11.85;5.45;;;;;;;;;;5001074;28;20046;-60
2021/01/27 11:07:39;;;;;;;14.47;6.27;;;;;;;;;;5008713;28;20021;-60
2021/01/27 11:10:06;;;;;;;12.02;5.85;;;;;;;;;;5024620;28;20041;-60
2021/01/27 11:12:33;;;;;;;11.90;4.88;;;;;;;;;;5006979;28;20073;-60
2021/01/27 11:14:59;;;;;;;10.02;4.70;;;;;;;;;;5021354;28;20117;-60
2021/01/27 11:17:25;;;;;;;11.32;4.60;;;;;;;;;;5017752;28;20064;-60
2021/01/27 11:19:51;;;;;;;8.63;4.53;;;;;;;;;;5004753;28;20049;-60
2021/01/27 11:22:18;;;;;;;9.02;4.50;;;;;;;;;;5004692;28;20037;-60
2021/01/27 11:24:44;;;;;;;10.38;4.30;;;;;;;;;;5016423;28;20045;-60
2021/01/27 11:27:10;;;;;;;8.52;4.47;;;;;;;;;;5024480;28;20048;-60
2021/01/27 11:29:36;;;;;;;11.88;4.55;;;;;;;;;;5016429;28;20116;-60
2021/01/27 11:32:02;;;;;;;11.68;5.70;;;;;;;;;;5020582;28;20042;-60
2021/01/27 11:34:28;;;;;;;11.77;5.32;;;;;;;;;;4997431;28;20086;-60
2021/01/27 11:36:54;;;;;;;12.15;5.38;;;;;;;;;;4991572;28;20075;-60
2021/01/27 11:39:22;;;;;;;11.18;5.63;;;;;;;;;;5009151;28;20088;-60
2021/01/27 11:41:48;;;;;;;11.07;5.60;;;;;;;;;;5038071;28;20033;-60
2021/01/27 11:44:14;;;;;;;11.13;5.25;;;;;;;;;;5009132;28;20099;-60
2021/01/27 11:46:41;;;;;;;13.75;6.20;;;;;;;;;;5003845;28;20041;-60
2021/01/27 11:49:07;;;;;;;13.15;5.57;;;;;;;;;;5018621;28;20041;-60
2021/01/27 11:51:33;;;;;;;12.02;6.00;;;;;;;;;;5004504;28;20030;-60
2021/01/27 11:53:59;;;;;;;12.48;5.60;;;;;;;;;;5000452;28;20045;-60
2021/01/27 11:56:26;;;;;;;11.50;5.32;;;;;;;;;;4998520;28;20056;-60
2021/01/27 11:58:52;;;;;;;13.85;6.25;;;;;;;;;;5005181;28;20042;-61
2021/01/27 12:01:18;;;;;;;13.57;5.97;;;;;;;;;;5020874;28;20049;-60
2021/01/27 12:03:44;;;;;;;14.02;6.72;;;;;;;;;;5041839;28;20097;-60
2021/01/27 12:06:10;;;;;;;14.57;6.10;;;;;;;;;;4988486;28;20150;-60
2021/01/27 12:08:37;;;;;;;12.00;5.43;;;;;;;;;;4999816;28;20045;-60
2021/01/27 12:11:03;;;;;;;10.75;5.53;;;;;;;;;;4992127;28;20042;-60
2021/01/27 12:13:30;;;;;;;14.30;6.47;;;;;;;;;;4985511;28;20034;-61
2021/01/27 12:15:56;;;;;;;14.05;6.32;;;;;;;;;;4992247;28;20082;-60
2021/01/27 12:18:23;;;;;;;13.68;6.70;;;;;;;;;;4985638;28;20055;-61
2021/01/27 12:20:50;;;;;;;12.40;6.30;;;;;;;;;;4980001;28;20124;-61
2021/01/27 12:23:16;;;;;;;15.40;6.28;;;;;;;;;;5015663;28;20125;-60
2021/01/27 12:25:42;;;;;;;13.65;6.90;;;;;;;;;;5021912;28;20037;-60
2021/01/27 12:28:09;;;;;;;15.93;6.65;;;;;;;;;;5027262;28;20041;-60
2021/01/27 12:30:36;;;;;;;11.43;5.50;;;;;;;;;;5038537;28;20083;-61
2021/01/27 12:33:02;;;;;;;16.70;7.00;;;;;;;;;;5015883;28;20026;-63
2021/01/27 12:35:28;;;;;;;16.10;7.05;;;;;;;;;;5039165;28;20041;-61
2021/01/27 12:37:54;;;;;;;14.70;6.25;;;;;;;;;;4994800;28;20061;-60
2021/01/27 12:40:21;;;;;;;14.95;6.90;;;;;;;;;;5001739;28;20062;-61
2021/01/27 12:42:48;;;;;;;11.50;5.35;;;;;;;;;;4991491;28;20046;-61
2021/01/27 12:45:14;;;;;;;17.85;7.07;;;;;;;;;;5002075;28;20060;-61
2021/01/27 12:47:42;;;;;;;23.33;8.55;;;;;;;;;;4989601;28;20050;-60
2021/01/27 12:50:08;;;;;;;16.80;7.28;;;;;;;;;;5002172;28;20065;-61
2021/01/27 12:52:34;;;;;;;15.25;7.07;;;;;;;;;;5012174;28;20041;-61
2021/01/27 12:55:00;;;;;;;19.00;6.95;;;;;;;;;;5043383;28;20091;-61
2021/01/27 12:57:28;;;;;;;17.55;6.72;;;;;;;;;;5008095;28;20105;-61
2021/01/27 12:59:54;;;;;;;17.88;7.05;;;;;;;;;;5002242;28;20120;-61
2021/01/27 13:02:20;;;;;;;14.15;5.90;;;;;;;;;;4998928;28;20048;-61
2021/01/27 13:04:50;;;;;;;14.93;7.20;;;;;;;;;;5014311;28;20042;-61
2021/01/27 13:07:16;;;;;;;17.38;6.85;;;;;;;;;;5014574;28;20046;-61
2021/01/27 13:09:42;;;;;;;15.93;6.88;;;;;;;;;;5005695;28;20059;-60
2021/01/27 13:12:08;;;;;;;17.15;7.95;;;;;;;;;;5002339;28;20053;-61
2021/01/27 13:14:34;;;;;;;15.07;6.43;;;;;;;;;;5005934;28;20049;-60
2021/01/27 13:17:00;;;;;;;17.17;6.63;;;;;;;;;;4997077;28;20128;-61
2021/01/27 13:19:27;;;;;;;17.20;6.63;;;;;;;;;;4981620;28;20039;-61
2021/01/27 13:21:54;;;;;;;17.90;7.50;;;;;;;;;;4997416;28;20037;-61
2021/01/27 13:24:20;;;;;;;15.02;6.10;;;;;;;;;;5015152;28;20050;-61
2021/01/27 13:26:46;;;;;;;15.60;6.43;;;;;;;;;;5000152;28;20155;-60
2021/01/27 13:29:13;;;;;;;12.45;5.80;;;;;;;;;;5007030;28;20070;-61
2021/01/27 13:31:39;;;;;;;16.42;7.53;;;;;;;;;;4985812;28;20053;-61
2021/01/27 13:34:05;;;;;;;15.40;6.53;;;;;;;;;;4993949;28;20046;-61
2021/01/27 13:36:33;;;;;;;18.80;7.65;;;;;;;;;;5020982;28;20099;-61
2021/01/27 13:39:01;;;;;;;15.82;7.60;;;;;;;;;;5001191;28;20053;-61
2021/01/27 13:41:27;;;;;;;21.10;7.97;;;;;;;;;;5005408;28;20056;-60
2021/01/27 13:43:53;;;;;;;19.45;8.18;;;;;;;;;;5001363;28;20074;-61
2021/01/27 13:46:19;;;;;;;19.45;7.82;;;;;;;;;;5005735;28;20049;-61
2021/01/27 13:48:45;;;;;;;20.48;8.43;;;;;;;;;;5003295;28;20065;-61
2021/01/27 13:51:11;;;;;;;16.13;6.25;;;;;;;;;;5041465;28;20045;-61
2021/01/27 13:53:37;;;;;;;19.88;7.03;;;;;;;;;;5018985;28;20103;-61
2021/01/27 13:56:04;;;;;;;17.20;7.57;;;;;;;;;;5000688;28;20116;-61
2021/01/27 13:58:30;;;;;;;19.48;7.55;;;;;;;;;;5002987;28;20046;-61
2021/01/27 14:00:56;;;;;;;16.77;7.93;;;;;;;;;;5001027;28;20050;-61
2021/01/27 14:03:22;;;;;;;22.20;7.53;;;;;;;;;;5007935;28;20034;-61
2021/01/27 14:05:48;;;;;;;19.70;8.55;;;;;;;;;;5021915;28;20072;-61
2021/01/27 14:08:15;;;;;;;20.50;7.53;;;;;;;;;;5041983;28;20052;-61
2021/01/27 14:10:41;;;;;;;16.33;7.05;;;;;;;;;;5023322;28;20041;-61
2021/01/27 14:13:08;;;;;;;24.63;8.32;;;;;;;;;;5026153;28;20051;-61
2021/01/27 14:15:34;;;;;;;68.22;22.25;;;;;;;;;;5009755;28;20049;-61
2021/01/27 14:18:00;;;;;;;25.60;8.68;;;;;;;;;;5002692;28;20038;-61
2021/01/27 14:20:30;;;;;;;17.77;7.28;;;;;;;;;;5024695;28;20085;-61
2021/01/27 14:22:56;;;;;;;25.58;7.85;;;;;;;;;;5011495;28;20042;-61
2021/01/27 14:25:23;;;;;;;18.20;7.63;;;;;;;;;;5003610;28;20070;-61
2021/01/27 14:27:51;;;;;;;16.60;7.82;;;;;;;;;;5015525;28;20038;-61
2021/01/27 14:30:19;;;;;;;21.60;7.57;;;;;;;;;;5005572;28;20093;-61
2021/01/27 14:32:45;;;;;;;22.52;8.07;;;;;;;;;;5024758;28;20298;-61
2021/01/27 14:35:11;;;;;;;20.73;8.07;;;;;;;;;;5018179;28;20038;-61
2021/01/27 14:37:37;;;;;;;25.02;7.55;;;;;;;;;;5023892;28;20093;-61
2021/01/27 14:40:04;;;;;;;22.55;7.82;;;;;;;;;;5025448;28;20047;-61
2021/01/27 14:42:30;;;;;;;19.23;7.15;;;;;;;;;;5004389;28;20053;-61
2021/01/27 14:44:56;;;;;;;16.90;7.50;;;;;;;;;;5005285;28;20048;-61
2021/01/27 14:47:23;;;;;;;15.95;6.63;;;;;;;;;;4999307;28;20046;-61
2021/01/27 14:49:49;;;;;;;24.08;7.30;;;;;;;;;;5002238;28;20026;-61
2021/01/27 14:52:15;;;;;;;17.33;7.45;;;;;;;;;;4999290;28;20050;-61